Time;durP1;ratioP1;P1;durP2;ratioP2;P2;SDS_P1;SDS_P2;PMS_P1;PMS_P2;Temp;Humidity;BMP_temperature;BMP_pressure;BME280_temperature;BME280_humidity;BME280_pressure;Samples;Min_cycle;Max_cycle;Signal;HPM_P1;HPM_P2
2023/07/07 00:02:09;;;;;;;7.10;3.83;;;;;;;14.88;100.00;101751.28;5227779;28;20033;-65
2023/07/07 00:04:41;;;;;;;8.27;4.40;;;;;;;14.74;100.00;101750.69;5230707;28;20107;-65
2023/07/07 00:07:14;;;;;;;7.60;4.38;;;;;;;14.86;100.00;101749.69;5232365;28;20099;-65
2023/07/07 00:09:45;;;;;;;7.00;4.03;;;;;;;14.62;100.00;101747.13;5234341;28;20071;-65
2023/07/07 00:12:17;;;;;;;7.15;4.22;;;;;;;14.58;100.00;101746.53;5230580;28;20395;-65
2023/07/07 00:14:50;;;;;;;9.63;4.55;;;;;;;14.51;100.00;101756.00;5222626;28;20111;-65
2023/07/07 00:17:21;;;;;;;7.93;4.25;;;;;;;14.53;100.00;101756.72;5238003;28;20032;-65
2023/07/07 00:19:52;;;;;;;7.57;4.35;;;;;;;14.54;100.00;101750.41;5232364;28;20029;-65
2023/07/07 00:22:24;;;;;;;7.05;4.38;;;;;;;14.53;100.00;101748.66;5230995;28;20086;-65
2023/07/07 00:24:55;;;;;;;13.57;4.22;;;;;;;14.54;100.00;101763.81;5232329;28;20491;-65
2023/07/07 00:27:27;;;;;;;7.22;4.60;;;;;;;14.57;100.00;101766.28;5232920;28;20029;-65
2023/07/07 00:29:58;;;;;;;5.97;4.18;;;;;;;14.51;100.00;101753.31;5227576;28;20028;-65
2023/07/07 00:32:31;;;;;;;9.50;3.85;;;;;;;14.45;100.00;101748.44;5226769;28;20091;-65
2023/07/07 00:35:03;;;;;;;8.32;4.60;;;;;;;14.34;100.00;101751.09;5223529;28;20037;-65
2023/07/07 00:37:35;;;;;;;8.63;4.78;;;;;;;14.42;100.00;101744.16;5227170;28;20083;-65
2023/07/07 00:40:07;;;;;;;7.10;4.93;;;;;;;14.41;100.00;101755.03;5223132;28;20164;-65
2023/07/07 00:42:38;;;;;;;9.80;5.32;;;;;;;14.36;100.00;101751.84;5230186;28;20033;-65
2023/07/07 00:45:19;;;;;;;7.95;5.10;;;;;;;14.44;100.00;101750.28;5225283;28;20116;-65
2023/07/07 00:47:53;;;;;;;9.43;5.00;;;;;;;14.34;100.00;101753.78;5225710;28;20143;-65
2023/07/07 00:50:30;;;;;;;8.27;5.15;;;;;;;14.41;100.00;101755.03;5223025;28;20099;-65
2023/07/07 00:53:01;;;;;;;7.97;5.65;;;;;;;14.41;100.00;101755.03;5224501;28;20049;-65
2023/07/07 00:55:44;;;;;;;9.32;5.30;;;;;;;14.45;100.00;101749.28;5229927;28;20109;-65
2023/07/07 00:58:19;;;;;;;10.73;7.03;;;;;;;14.47;100.00;101747.31;5224644;28;20053;-65
2023/07/07 01:00:57;;;;;;;10.18;5.28;;;;;;;14.18;100.00;101754.97;5228419;28;20037;-65
2023/07/07 01:03:38;;;;;;;8.02;5.43;;;;;;;14.11;100.00;101753.72;5224589;28;20071;-65
2023/07/07 01:06:14;;;;;;;8.07;5.25;;;;;;;14.06;100.00;101761.31;5225068;28;20026;-65
2023/07/07 01:08:50;;;;;;;7.75;5.35;;;;;;;14.17;100.00;101760.44;5226377;28;20072;-65
2023/07/07 01:11:22;;;;;;;7.45;5.10;;;;;;;14.13;100.00;101759.84;5222427;28;20030;-65
2023/07/07 01:13:55;;;;;;;6.88;5.05;;;;;;;14.31;100.00;101765.63;5226421;28;20099;-65
2023/07/07 01:16:48;;;;;;;10.65;5.35;;;;;;;14.10;100.00;101757.41;5226410;28;20084;-65
2023/07/07 01:19:44;;;;;;;8.20;5.22;;;;;;;13.90;100.00;101765.16;5231826;28;20224;-65
2023/07/07 01:22:53;;;;;;;7.30;5.15;;;;;;;13.91;100.00;101760.63;5227313;28;20037;-65
2023/07/07 01:25:58;;;;;;;9.43;5.60;;;;;;;13.84;100.00;101757.53;5234014;28;20484;-65
2023/07/07 01:29:25;;;;;;;10.10;6.10;;;;;;;13.88;100.00;101763.53;5228380;28;20056;-65
2023/07/07 01:32:19;;;;;;;6.57;4.88;;;;;;;13.74;100.00;101761.91;5209226;28;20032;-65
2023/07/07 01:34:55;;;;;;;10.15;6.00;;;;;;;13.68;100.00;101765.91;5217457;28;20037;-65
2023/07/07 01:37:27;;;;;;;8.05;5.13;;;;;;;13.66;100.00;101753.59;5222223;28;20038;-65
2023/07/07 01:40:00;;;;;;;9.27;5.60;;;;;;;13.69;100.00;101754.22;5226433;28;20447;-65
2023/07/07 01:42:35;;;;;;;11.70;5.68;;;;;;;13.65;100.00;101755.44;5229468;28;20424;-65
2023/07/07 01:45:16;;;;;;;8.45;5.47;;;;;;;13.56;100.00;101755.22;5227847;28;20039;-65
2023/07/07 01:48:08;;;;;;;8.52;5.28;;;;;;;13.65;100.00;101763.47;5225343;28;20051;-65
2023/07/07 01:50:40;;;;;;;9.88;5.30;;;;;;;13.54;100.00;101760.72;5224779;28;20043;-65
2023/07/07 01:53:19;;;;;;;8.98;5.82;;;;;;;13.64;100.00;101760.91;5229597;28;20444;-65
2023/07/07 01:55:57;;;;;;;7.72;5.35;;;;;;;13.53;100.00;101761.69;5229976;28;20080;-65
2023/07/07 01:58:31;;;;;;;7.60;5.35;;;;;;;13.44;100.00;101759.69;5228377;28;20415;-66
2023/07/07 02:01:02;;;;;;;;;;;;;;;13.70;100.00;101760.44;5228554;28;20034;-65
2023/07/07 02:03:34;;;;;;;8.35;5.50;;;;;;;13.46;100.00;101755.94;5228104;28;19917;-65
2023/07/07 02:06:05;;;;;;;8.10;5.40;;;;;;;13.40;100.00;101753.69;5226058;28;20033;-65
2023/07/07 02:08:36;;;;;;;9.23;5.30;;;;;;;13.32;100.00;101753.41;5221186;28;20101;-65
2023/07/07 02:11:11;;;;;;;8.23;5.80;;;;;;;13.34;100.00;101754.16;5222221;28;21934;-65
2023/07/07 02:13:43;;;;;;;8.13;5.18;;;;;;;13.56;100.00;101757.91;5231525;28;20104;-65
2023/07/07 02:16:15;;;;;;;8.35;4.88;;;;;;;13.44;100.00;101746.28;5241055;28;20100;-65
2023/07/07 02:18:48;;;;;;;7.00;5.00;;;;;;;13.46;100.00;101747.00;5232451;28;20064;-65
2023/07/07 02:21:20;;;;;;;9.07;5.15;;;;;;;13.45;100.00;101750.69;5229150;28;20068;-65
2023/07/07 02:23:51;;;;;;;7.22;4.82;;;;;;;13.35;100.00;101750.50;5235773;28;20032;-65
2023/07/07 02:26:22;;;;;;;7.75;4.82;;;;;;;13.24;100.00;101753.09;5228515;28;20423;-65
2023/07/07 02:28:54;;;;;;;8.23;5.05;;;;;;;13.43;100.00;101745.44;5220990;28;20056;-65
2023/07/07 02:31:26;;;;;;;7.40;5.35;;;;;;;13.25;100.00;101739.59;5231450;28;20356;-65
2023/07/07 02:33:57;;;;;;;7.18;5.00;;;;;;;13.43;100.00;101752.63;5229711;28;20037;-65
2023/07/07 02:36:28;;;;;;;7.90;5.40;;;;;;;13.32;100.00;101756.09;5233395;28;20066;-65
2023/07/07 02:39:00;;;;;;;8.35;5.55;;;;;;;13.24;100.00;101747.72;5234468;28;20029;-65
2023/07/07 02:41:31;;;;;;;8.45;5.25;;;;;;;13.21;100.00;101754.19;5234501;28;20104;-65
2023/07/07 02:44:03;;;;;;;6.85;4.88;;;;;;;13.18;100.00;101746.34;5232067;28;20037;-65
2023/07/07 02:46:34;;;;;;;6.68;4.75;;;;;;;13.06;100.00;101756.16;5222850;28;20029;-65
2023/07/07 02:49:05;;;;;;;7.80;5.40;;;;;;;13.19;100.00;101755.25;5223992;28;20032;-65
2023/07/07 02:51:37;;;;;;;7.90;5.10;;;;;;;13.07;100.00;101762.34;5227002;28;20030;-65
2023/07/07 02:54:08;;;;;;;8.23;5.47;;;;;;;13.13;100.00;101756.53;5225663;28;20108;-65
2023/07/07 02:56:39;;;;;;;7.75;4.53;;;;;;;13.19;100.00;101768.63;5229539;28;20119;-65
2023/07/07 02:59:11;;;;;;;8.40;5.45;;;;;;;13.08;100.00;101769.44;5233824;28;20061;-65
2023/07/07 03:01:44;;;;;;;8.80;5.40;;;;;;;13.09;100.00;101769.31;5224968;28;20356;-65
2023/07/07 03:04:15;;;;;;;8.68;5.50;;;;;;;13.19;100.00;101772.16;5232781;28;20029;-65
2023/07/07 03:06:47;;;;;;;6.38;5.00;;;;;;;13.14;100.00;101772.50;5232254;28;20396;-65
2023/07/07 03:09:19;;;;;;;10.13;4.85;;;;;;;12.98;100.00;101777.25;5218528;28;21234;-64
2023/07/07 03:11:50;;;;;;;6.63;4.75;;;;;;;13.05;100.00;101775.00;5220952;28;20043;-65
2023/07/07 03:14:22;;;;;;;7.68;4.78;;;;;;;12.99;100.00;101770.09;5223731;28;20035;-65
2023/07/07 03:16:56;;;;;;;9.73;5.38;;;;;;;13.10;100.00;101779.06;5226352;28;20065;-65
2023/07/07 03:19:28;;;;;;;7.78;5.40;;;;;;;13.04;100.00;101782.19;5226771;28;20029;-65
2023/07/07 03:21:59;;;;;;;8.27;5.20;;;;;;;12.95;100.00;101783.69;5231224;28;20040;-65
2023/07/07 03:24:30;;;;;;;6.45;5.10;;;;;;;12.91;100.00;101768.81;5223744;28;20384;-65
2023/07/07 03:27:02;;;;;;;8.60;5.57;;;;;;;12.87;100.00;101771.84;5226366;28;20146;-64
2023/07/07 03:29:33;;;;;;;8.07;5.32;;;;;;;12.98;100.00;101771.91;5228154;28;20029;-65
2023/07/07 03:32:05;;;;;;;8.32;5.47;;;;;;;12.98;100.00;101774.56;5226151;28;20139;-65
2023/07/07 03:34:41;;;;;;;7.60;4.93;;;;;;;13.08;100.00;101770.28;5234243;28;20029;-65
2023/07/07 03:37:12;;;;;;;8.57;5.60;;;;;;;13.04;100.00;101781.31;5231455;28;20037;-65
2023/07/07 03:39:44;;;;;;;6.95;4.90;;;;;;;13.09;100.00;101787.22;5227656;28;20033;-65
2023/07/07 03:42:15;;;;;;;7.78;5.22;;;;;;;13.01;100.00;101776.19;5227953;28;20110;-65
2023/07/07 03:44:47;;;;;;;9.02;6.00;;;;;;;12.90;100.00;101776.94;5232805;28;20033;-64
2023/07/07 03:47:18;;;;;;;8.00;5.65;;;;;;;12.99;100.00;101775.44;5227349;28;20546;-65
2023/07/07 03:49:50;;;;;;;8.85;5.43;;;;;;;12.88;100.00;101774.38;5225060;28;20055;-65
2023/07/07 03:52:21;;;;;;;6.93;5.07;;;;;;;12.94;100.00;101775.75;5229127;28;20029;-64
2023/07/07 03:54:52;;;;;;;7.60;5.00;;;;;;;12.96;100.00;101781.88;5231222;28;20051;-65
2023/07/07 03:57:24;;;;;;;7.75;5.32;;;;;;;13.00;100.00;101775.34;5227374;28;20022;-65
2023/07/07 03:59:55;;;;;;;8.85;5.85;;;;;;;13.02;100.00;101777.88;5227521;28;20080;-65
2023/07/07 04:02:27;;;;;;;7.32;5.50;;;;;;;12.97;100.00;101770.19;5229404;28;20029;-65
2023/07/07 04:04:59;;;;;;;8.45;5.28;;;;;;;13.00;100.00;101777.16;5228506;28;20036;-65
2023/07/07 04:07:30;;;;;;;8.18;5.32;;;;;;;12.91;100.00;101778.69;5229230;28;20041;-65
2023/07/07 04:10:05;;;;;;;7.72;5.60;;;;;;;12.98;100.00;101781.75;5224961;28;20029;-65
2023/07/07 04:12:36;;;;;;;9.85;6.35;;;;;;;12.90;100.00;101771.59;5228689;28;20057;-65
2023/07/07 04:15:08;;;;;;;10.48;6.30;;;;;;;12.89;100.00;101775.25;5239503;28;20040;-64
2023/07/07 04:17:39;;;;;;;8.25;6.30;;;;;;;12.80;100.00;101791.97;5232312;28;20025;-65
2023/07/07 04:20:11;;;;;;;8.20;6.03;;;;;;;12.81;100.00;101785.63;5224052;28;20076;-64
2023/07/07 04:22:42;;;;;;;7.78;5.82;;;;;;;12.81;100.00;101786.50;5227696;28;20025;-64
2023/07/07 04:25:16;;;;;;;10.30;7.05;;;;;;;12.89;100.00;101789.50;5228456;28;20487;-64
2023/07/07 04:27:47;;;;;;;9.63;5.95;;;;;;;12.80;100.00;101795.50;5225314;28;20026;-65
2023/07/07 04:30:18;;;;;;;7.13;6.20;;;;;;;12.94;100.00;101789.16;5228450;28;20029;-65
2023/07/07 04:32:50;;;;;;;9.52;6.85;;;;;;;13.00;100.00;101795.91;5225183;28;20396;-65
2023/07/07 04:35:21;;;;;;;10.25;6.20;;;;;;;12.91;100.00;101802.78;5235046;28;20253;-64
2023/07/07 04:37:52;;;;;;;12.63;6.50;;;;;;;13.00;100.00;101795.91;5225969;28;20415;-66
2023/07/07 04:40:24;;;;;;;10.38;7.32;;;;;;;13.04;100.00;101795.59;5231383;28;20200;-65
2023/07/07 04:42:55;;;;;;;10.50;7.10;;;;;;;12.94;100.00;101794.50;5219965;28;20430;-65
2023/07/07 04:45:27;;;;;;;12.73;7.97;;;;;;;13.01;100.00;101790.44;5227581;28;20819;-64
2023/07/07 04:47:58;;;;;;;10.55;7.60;;;;;;;13.15;100.00;101792.13;5237703;28;20029;-64
2023/07/07 04:50:32;;;;;;;11.82;8.20;;;;;;;13.04;100.00;101795.59;5226648;28;20079;-64
2023/07/07 04:53:04;;;;;;;;;;;;;;;13.25;100.00;101786.94;5228350;28;20084;-64
2023/07/07 04:55:42;;;;;;;11.38;7.72;;;;;;;13.24;100.00;101791.47;5224112;28;20319;-64
2023/07/07 04:58:13;;;;;;;12.18;7.50;;;;;;;13.09;100.00;101788.06;5223602;28;20037;-65
2023/07/07 05:00:45;;;;;;;10.45;7.22;;;;;;;13.12;100.00;101798.56;5219957;28;20037;-65
2023/07/07 05:03:16;;;;;;;11.55;7.35;;;;;;;13.07;100.00;101792.66;5222164;28;20029;-64
2023/07/07 05:05:48;;;;;;;10.63;8.00;;;;;;;13.28;100.00;101798.31;5231774;28;20091;-65
2023/07/07 05:08:19;;;;;;;11.20;7.97;;;;;;;13.27;100.00;101801.09;5226924;28;20137;-65
2023/07/07 05:10:51;;;;;;;16.00;8.30;;;;;;;13.25;100.00;101795.88;5226035;28;20520;-65
2023/07/07 05:13:22;;;;;;;13.25;7.88;;;;;;;13.37;100.00;101802.19;5233933;28;20040;-65
2023/07/07 05:16:01;;;;;;;12.13;8.00;;;;;;;13.36;100.00;101800.44;5235415;28;20053;-65
2023/07/07 05:18:33;;;;;;;13.45;8.10;;;;;;;13.33;100.00;101800.69;5235126;28;20036;-65
2023/07/07 05:21:06;;;;;;;10.85;6.93;;;;;;;13.40;100.00;101793.03;5226523;28;20166;-65
2023/07/07 05:23:38;;;;;;;11.65;7.10;;;;;;;13.44;100.00;101792.72;5231302;28;20368;-65
2023/07/07 05:26:09;;;;;;;10.80;8.00;;;;;;;13.51;100.00;101798.47;5238342;28;20037;-65
2023/07/07 05:28:41;;;;;;;11.27;7.00;;;;;;;13.34;100.00;101799.72;5236199;28;20116;-65
2023/07/07 05:31:12;;;;;;;9.85;5.85;;;;;;;13.35;100.00;101801.44;5237212;28;20034;-64
2023/07/07 05:33:43;;;;;;;11.32;6.50;;;;;;;13.42;100.00;101805.34;5224888;28;20022;-65
2023/07/07 05:36:15;;;;;;;9.52;5.47;;;;;;;13.49;100.00;101801.28;5230198;28;20895;-65
2023/07/07 05:38:46;;;;;;;9.30;5.60;;;;;;;13.51;100.00;101796.66;5231611;28;20060;-65
2023/07/07 05:41:17;;;;;;;9.43;5.60;;;;;;;13.53;100.00;101791.19;5231918;28;20033;-65
2023/07/07 05:43:49;;;;;;;10.18;5.95;;;;;;;13.53;100.00;101799.22;5225361;28;20114;-65
2023/07/07 05:46:21;;;;;;;11.80;6.25;;;;;;;13.59;100.00;101811.31;5230537;28;20033;-65
2023/07/07 05:48:52;;;;;;;7.45;5.25;;;;;;;13.70;100.00;101814.06;5230583;28;20036;-65
2023/07/07 05:51:23;;;;;;;12.48;5.50;;;;;;;13.66;100.00;101804.53;5228770;28;20033;-65
2023/07/07 05:53:55;;;;;;;10.35;4.82;;;;;;;13.68;100.00;101805.28;5233563;28;20976;-65
2023/07/07 05:56:27;;;;;;;9.18;4.88;;;;;;;13.80;100.00;101803.50;5225859;28;20037;-65
2023/07/07 05:58:58;;;;;;;9.45;5.25;;;;;;;13.81;100.00;101806.09;5214993;28;20022;-65
2023/07/07 06:01:30;;;;;;;8.60;4.82;;;;;;;13.97;100.00;101802.25;5226354;28;20032;-65
2023/07/07 06:04:01;;;;;;;7.93;4.80;;;;;;;13.98;100.00;101807.50;5228053;28;20051;-65
2023/07/07 06:06:32;;;;;;;8.52;4.68;;;;;;;14.15;100.00;101808.03;5231143;28;20055;-65
2023/07/07 06:09:06;;;;;;;9.32;4.93;;;;;;;14.15;100.00;101805.34;5225528;28;20035;-65
2023/07/07 06:11:37;;;;;;;8.40;4.38;;;;;;;14.23;100.00;101801.13;5234254;28;20030;-65
2023/07/07 06:14:09;;;;;;;8.65;4.32;;;;;;;14.25;100.00;101798.31;5232558;28;20863;-65
2023/07/07 06:16:40;;;;;;;9.70;4.13;;;;;;;14.42;100.00;101802.34;5229506;28;20039;-65
2023/07/07 06:19:12;;;;;;;8.50;4.80;;;;;;;14.46;100.00;101801.19;5233655;28;20365;-65
2023/07/07 06:21:43;;;;;;;7.22;4.10;;;;;;;14.57;100.00;101797.66;5227031;28;20056;-65
2023/07/07 06:24:14;;;;;;;7.55;3.95;;;;;;;14.61;100.00;101789.25;5242739;28;20534;-65
2023/07/07 06:26:46;;;;;;;7.93;4.47;;;;;;;14.69;100.00;101792.19;5222976;28;20087;-65
2023/07/07 06:29:17;;;;;;;8.18;3.80;;;;;;;14.86;100.00;101789.97;5240076;28;20021;-66
2023/07/07 06:31:49;;;;;;;8.80;3.85;;;;;;;15.00;100.00;101795.13;5227526;28;20117;-65
2023/07/07 06:34:20;;;;;;;9.07;4.35;;;;;;;15.23;100.00;101789.72;5229074;28;20025;-65
2023/07/07 06:36:52;;;;;;;6.90;3.35;;;;;;;15.29;100.00;101794.59;5226777;28;20781;-65
2023/07/07 06:39:23;;;;;;;6.82;3.58;;;;;;;15.39;100.00;101803.63;5223089;28;20029;-65
2023/07/07 06:41:56;;;;;;;6.30;2.92;;;;;;;15.46;100.00;101793.22;5235721;28;20013;-65
2023/07/07 06:44:27;;;;;;;7.78;3.72;;;;;;;15.62;100.00;101796.34;5228305;28;20029;-65
2023/07/07 06:46:59;;;;;;;5.60;3.20;;;;;;;15.85;100.00;101797.16;5219410;28;20026;-65
2023/07/07 06:49:30;;;;;;;8.23;3.25;;;;;;;16.05;100.00;101802.69;5229798;28;20349;-65
2023/07/07 06:52:02;;;;;;;5.35;2.95;;;;;;;16.10;100.00;101803.16;5231809;28;20514;-65
2023/07/07 06:54:34;;;;;;;6.40;3.33;;;;;;;16.21;100.00;101795.03;5224169;28;20422;-65
2023/07/07 06:57:06;;;;;;;6.93;3.25;;;;;;;16.45;100.00;101799.28;5230742;28;20033;-65
2023/07/07 06:59:38;;;;;;;6.30;2.92;;;;;;;16.62;100.00;101801.38;5225338;28;20026;-66
2023/07/07 07:02:12;;;;;;;5.80;3.05;;;;;;;16.84;100.00;101805.78;5232410;28;20041;-65
2023/07/07 07:04:44;;;;;;;6.13;3.08;;;;;;;17.01;100.00;101793.50;5234619;28;20099;-66
2023/07/07 07:07:15;;;;;;;5.07;3.03;;;;;;;17.03;100.00;101799.63;5231594;28;20041;-65
2023/07/07 07:09:46;;;;;;;6.97;3.05;;;;;;;17.16;100.00;101798.53;5233242;28;20025;-65
2023/07/07 07:12:18;;;;;;;7.78;3.33;;;;;;;17.29;100.00;101793.72;5235484;28;20032;-66
2023/07/07 07:14:49;;;;;;;5.53;2.40;;;;;;;17.52;100.00;101793.50;5222235;28;20025;-66
2023/07/07 07:17:22;;;;;;;4.43;2.45;;;;;;;17.69;100.00;101806.31;5234002;28;20036;-66
2023/07/07 07:19:53;;;;;;;6.85;2.67;;;;;;;17.76;100.00;101803.91;5231098;28;20025;-66
2023/07/07 07:22:24;;;;;;;5.18;2.25;;;;;;;17.91;100.00;101798.94;5228160;28;20439;-65
2023/07/07 07:24:56;;;;;;;4.15;2.20;;;;;;;18.08;100.00;101805.50;5228189;28;20033;-66
2023/07/07 07:27:27;;;;;;;6.40;2.30;;;;;;;18.15;100.00;101803.94;5226369;28;20500;-66
2023/07/07 07:29:58;;;;;;;4.95;2.30;;;;;;;18.21;100.00;101806.88;5222153;28;20029;-66
2023/07/07 07:32:30;;;;;;;5.68;2.10;;;;;;;18.44;100.00;101803.88;5228979;28;20489;-67
2023/07/07 07:35:01;;;;;;;6.65;2.30;;;;;;;18.68;100.00;101803.41;5227302;28;20491;-66
2023/07/07 07:37:33;;;;;;;4.53;2.05;;;;;;;18.68;100.00;101800.69;5234427;28;20125;-67
2023/07/07 07:40:05;;;;;;;5.00;2.08;;;;;;;18.79;100.00;101807.75;5227061;28;20407;-66
2023/07/07 07:42:37;;;;;;;4.80;2.42;;;;;;;18.88;100.00;101812.31;5231228;28;20490;-66
2023/07/07 07:45:15;;;;;;;5.32;2.13;;;;;;;19.10;100.00;101800.28;5235342;28;20029;-67
2023/07/07 07:47:47;;;;;;;4.93;2.17;;;;;;;19.26;100.00;101807.72;5227106;28;20042;-66
2023/07/07 07:50:21;;;;;;;4.93;2.10;;;;;;;19.66;100.00;101811.91;5223229;28;20056;-67
2023/07/07 07:52:52;;;;;;;5.00;2.05;;;;;;;19.85;100.00;101801.94;5227950;28;20028;-66
2023/07/07 07:55:24;;;;;;;7.15;2.20;;;;;;;19.90;100.00;101807.75;5230942;28;20384;-67
2023/07/07 07:57:55;;;;;;;4.90;1.90;;;;;;;20.05;100.00;101810.78;5227383;28;20025;-66
2023/07/07 08:00:27;;;;;;;6.03;2.10;;;;;;;20.21;100.00;101812.75;5225495;28;20026;-66
2023/07/07 08:02:58;;;;;;;4.32;2.13;;;;;;;20.21;100.00;101808.19;5235510;28;20088;-67
2023/07/07 08:05:30;;;;;;;6.65;2.20;;;;;;;20.30;100.00;101809.09;5216400;28;20033;-66
2023/07/07 08:08:02;;;;;;;5.43;2.30;;;;;;;20.29;100.00;101810.13;5220910;28;20081;-67
2023/07/07 08:10:33;;;;;;;5.00;2.15;;;;;;;20.43;100.00;101814.97;5224245;28;22035;-66
2023/07/07 08:13:05;;;;;;;4.43;2.03;;;;;;;20.52;100.00;101808.59;5218279;28;20026;-66
2023/07/07 08:15:36;;;;;;;5.43;1.60;;;;;;;20.71;100.00;101810.28;5212454;28;20362;-67
2023/07/07 08:18:08;;;;;;;5.53;2.00;;;;;;;20.84;100.00;101811.69;5218880;28;20041;-67
2023/07/07 08:20:39;;;;;;;5.63;2.05;;;;;;;20.76;100.00;101812.50;5222598;28;20030;-66
2023/07/07 08:23:11;;;;;;;5.80;2.30;;;;;;;20.81;100.00;101810.16;5228029;28;20510;-66
2023/07/07 08:25:42;;;;;;;4.47;1.92;;;;;;;20.96;100.00;101813.13;5228665;28;20037;-66
2023/07/07 08:28:13;;;;;;;5.03;2.10;;;;;;;21.11;100.00;101813.34;5229010;28;20041;-67
2023/07/07 08:30:45;;;;;;;3.70;1.85;;;;;;;21.48;100.00;101813.00;5230078;28;20037;-66
2023/07/07 08:33:17;;;;;;;4.30;1.98;;;;;;;21.65;100.00;101804.88;5224866;28;20112;-66
2023/07/07 08:35:48;;;;;;;4.88;2.00;;;;;;;21.56;100.00;101812.19;5227155;28;20026;-66
2023/07/07 08:38:20;;;;;;;5.07;1.90;;;;;;;21.81;100.00;101814.94;5227841;28;20036;-67
2023/07/07 08:40:54;;;;;;;4.25;1.75;;;;;;;21.62;100.00;101810.66;5225795;28;20109;-66
2023/07/07 08:43:29;;;;;;;5.40;1.63;;;;;;;21.87;100.00;101812.38;5227855;28;20681;-67
2023/07/07 08:46:26;;;;;;;5.65;2.13;;;;;;;22.07;100.00;101810.22;5228965;28;20033;-66
2023/07/07 08:49:15;;;;;;;4.90;1.83;;;;;;;22.27;100.00;101818.03;5221082;28;20034;-67
2023/07/07 08:51:56;;;;;;;6.50;1.90;;;;;;;22.18;100.00;101819.88;5218977;28;20594;-67
2023/07/07 08:54:31;;;;;;;5.43;1.60;;;;;;;22.19;100.00;101804.44;5221900;28;20029;-67
2023/07/07 08:57:09;;;;;;;3.28;1.70;;;;;;;22.61;100.00;101814.25;5215288;28;20067;-67
2023/07/07 08:59:53;;;;;;;5.30;1.65;;;;;;;22.39;100.00;101808.50;5225920;28;20466;-67
2023/07/07 09:02:32;;;;;;;4.32;2.03;;;;;;;22.55;100.00;101815.81;5223618;28;20033;-67
2023/07/07 09:05:24;;;;;;;5.18;1.98;;;;;;;22.66;100.00;101811.88;5228131;28;20814;-67
2023/07/07 09:08:23;;;;;;;4.60;1.85;;;;;;;22.89;100.00;101806.53;5230605;28;20065;-66
2023/07/07 09:11:19;;;;;;;4.50;2.20;;;;;;;23.02;100.00;101809.53;5225738;28;20403;-66
2023/07/07 09:13:57;;;;;;;5.75;1.90;;;;;;;23.09;100.00;101804.28;5229024;28;20087;-66
2023/07/07 09:16:35;;;;;;;4.18;1.83;;;;;;;23.10;100.00;101805.97;5224412;28;20029;-66
2023/07/07 09:19:10;;;;;;;5.55;1.90;;;;;;;23.11;100.00;101802.22;5230559;28;20028;-66
2023/07/07 09:21:46;;;;;;;6.72;1.98;;;;;;;23.44;100.00;101811.06;5227597;28;20057;-67
2023/07/07 09:24:30;;;;;;;4.07;2.13;;;;;;;23.32;100.00;101804.34;5221329;28;20460;-63
2023/07/07 09:27:08;;;;;;;4.07;1.73;;;;;;;23.51;100.00;101804.91;5222977;28;20025;-62
2023/07/07 09:29:41;;;;;;;4.55;2.00;;;;;;;23.96;100.00;101797.81;5231908;28;20384;-62
2023/07/07 09:32:19;;;;;;;3.58;1.88;;;;;;;23.80;100.00;101806.97;5229951;28;20427;-63
2023/07/07 09:34:51;;;;;;;4.43;1.90;;;;;;;23.91;100.00;101805.69;5233016;28;20037;-63
2023/07/07 09:37:50;;;;;;;3.95;1.80;;;;;;;23.95;100.00;101815.19;5219572;28;20032;-62
2023/07/07 09:40:34;;;;;;;4.22;2.00;;;;;;;24.05;100.00;101803.03;5225161;28;20037;-62
2023/07/07 09:43:26;;;;;;;4.60;1.98;;;;;;;23.96;100.00;101806.00;5221945;28;20037;-62
2023/07/07 09:46:04;;;;;;;3.67;1.65;;;;;;;24.37;100.00;101801.00;5227077;28;20032;-62
2023/07/07 09:48:42;;;;;;;3.75;1.90;;;;;;;24.39;100.00;101793.53;5228039;28;20029;-63
2023/07/07 09:51:31;;;;;;;8.98;2.10;;;;;;;24.35;100.00;101797.63;5233548;28;20130;-63
2023/07/07 09:54:03;;;;;;;5.28;1.98;;;;;;;24.70;100.00;101798.00;5222157;28;20033;-63
2023/07/07 09:56:46;;;;;;;3.78;1.80;;;;;;;24.73;85.99;101786.69;5227365;28;20033;-63
2023/07/07 09:59:25;;;;;;;4.15;1.90;;;;;;;24.50;90.34;101783.19;5223073;28;20034;-65
2023/07/07 10:01:57;;;;;;;5.28;1.98;;;;;;;24.92;94.08;101785.28;5222926;28;20033;-62
2023/07/07 10:04:30;;;;;;;4.38;1.80;;;;;;;24.85;89.40;101784.34;5223687;28;20117;-63
2023/07/07 10:07:09;;;;;;;4.75;2.03;;;;;;;24.77;88.25;101789.91;5222528;28;20426;-63
2023/07/07 10:09:40;;;;;;;5.30;2.20;;;;;;;24.78;91.57;101784.25;5217500;28;20040;-63
2023/07/07 10:12:16;;;;;;;6.82;2.30;;;;;;;25.05;87.25;101779.16;5223089;28;20025;-62
2023/07/07 10:14:49;;;;;;;3.80;1.90;;;;;;;25.06;86.92;101775.38;5226017;28;20479;-62
2023/07/07 10:18:10;;;;;;;5.00;1.83;;;;;;;25.09;95.17;101772.28;5218258;28;20552;-62
2023/07/07 10:20:42;;;;;;;3.58;1.55;;;;;;;25.06;86.34;101769.91;5227628;28;20041;-62
2023/07/07 10:23:14;;;;;;;6.18;2.10;;;;;;;25.13;86.84;101765.38;5229166;28;20033;-62
2023/07/07 10:25:46;;;;;;;5.30;1.90;;;;;;;25.19;84.91;101772.81;5233174;28;20041;-62
2023/07/07 10:28:20;;;;;;;5.22;2.05;;;;;;;25.26;87.89;101766.63;5221327;28;20559;-62
2023/07/07 10:30:51;;;;;;;4.10;1.80;;;;;;;25.24;88.15;101758.63;5224346;28;20021;-63
2023/07/07 10:33:23;;;;;;;4.18;1.85;;;;;;;25.31;88.07;101772.34;5213936;28;20048;-62
2023/07/07 10:35:54;;;;;;;6.85;2.10;;;;;;;25.59;83.89;101765.09;5225618;28;20025;-62
2023/07/07 10:38:25;;;;;;;6.25;1.70;;;;;;;25.32;81.63;101763.13;5224871;28;20029;-62
2023/07/07 10:40:58;;;;;;;5.70;2.03;;;;;;;25.42;86.12;101760.91;5229859;28;20021;-62
2023/07/07 10:43:30;;;;;;;5.37;1.90;;;;;;;25.38;86.10;101759.59;5223046;28;20033;-62
2023/07/07 10:46:01;;;;;;;3.17;1.60;;;;;;;25.40;86.66;101757.53;5222133;28;20954;-62
2023/07/07 10:48:32;;;;;;;5.03;1.83;;;;;;;25.36;83.98;101761.69;5216441;28;20032;-62
2023/07/07 10:51:31;;;;;;;4.32;1.95;;;;;;;25.53;88.47;101760.41;5217215;28;20543;-62
2023/07/07 10:54:18;;;;;;;4.97;2.25;;;;;;;25.55;86.04;101760.22;5214843;28;20029;-62
2023/07/07 10:56:56;;;;;;;4.82;1.92;;;;;;;25.54;83.63;101755.78;5221686;28;20029;-62
2023/07/07 10:59:51;;;;;;;4.25;1.70;;;;;;;25.62;88.05;101756.50;5222067;28;20040;-62
2023/07/07 11:02:25;;;;;;;3.58;1.85;;;;;;;25.74;77.32;101743.16;5225313;28;20029;-62
2023/07/07 11:05:05;;;;;;;4.18;1.90;;;;;;;25.89;83.04;101748.56;5221740;28;20483;-62
2023/07/07 11:07:52;;;;;;;4.25;1.88;;;;;;;25.73;84.03;101751.56;5223912;28;20086;-62
2023/07/07 11:11:21;;;;;;;4.05;1.80;;;;;;;25.92;83.04;101756.38;5217024;28;20403;-62
2023/07/07 11:14:13;;;;;;;5.78;2.05;;;;;;;25.76;81.44;101745.72;5196838;28;20527;-62
2023/07/07 11:16:56;;;;;;;6.70;2.00;;;;;;;26.04;76.31;101750.38;5203304;28;20029;-62
2023/07/07 11:19:36;;;;;;;4.82;2.10;;;;;;;25.98;79.13;101750.16;5222441;28;20091;-62
2023/07/07 11:22:41;;;;;;;3.85;2.03;;;;;;;26.04;78.65;101742.19;5223788;28;20033;-62
2023/07/07 11:25:37;;;;;;;5.57;2.30;;;;;;;26.02;73.25;101745.97;5225907;28;20112;-62
2023/07/07 11:28:36;;;;;;;6.60;2.20;;;;;;;26.21;78.67;101746.31;5215292;28;20049;-64
2023/07/07 11:31:44;;;;;;;4.75;2.20;;;;;;;26.19;81.31;101738.28;5220452;28;20428;-63
2023/07/07 11:34:51;;;;;;;4.78;2.20;;;;;;;26.22;79.69;101728.84;5223487;28;20335;-63
2023/07/07 11:38:14;;;;;;;4.55;2.30;;;;;;;26.19;76.91;101729.25;5225272;28;20685;-63
2023/07/07 11:41:13;;;;;;;4.88;2.13;;;;;;;26.41;79.54;101728.13;5212279;28;20510;-63
2023/07/07 11:44:03;;;;;;;4.55;2.03;;;;;;;26.20;77.96;101726.31;5231839;28;20136;-63
2023/07/07 11:47:06;;;;;;;4.70;2.30;;;;;;;26.50;79.11;101714.28;5217097;28;20439;-63
2023/07/07 11:50:08;;;;;;;4.93;2.25;;;;;;;26.60;76.66;101729.34;5224473;28;20040;-63
2023/07/07 11:52:55;;;;;;;4.35;2.17;;;;;;;26.56;73.56;101732.63;5221400;28;20057;-63
2023/07/07 11:55:26;;;;;;;5.95;2.30;;;;;;;26.37;73.58;101724.13;5241487;28;20430;-63
2023/07/07 11:57:57;;;;;;;3.60;1.83;;;;;;;26.50;74.73;101727.97;5234905;28;20038;-63